createdAt,value
2023-01-26T00:04:21.418Z,17.82
2023-01-26T00:09:27.643Z,17.65
2023-01-26T00:14:33.719Z,17.54
2023-01-26T00:19:39.992Z,17.16
2023-01-26T00:24:46.104Z,16.23
2023-01-26T00:29:52.429Z,23.84
2023-01-26T00:34:58.515Z,15.74
2023-01-26T00:40:04.696Z,17.19
2023-01-26T00:45:10.719Z,15.33
2023-01-26T00:50:16.920Z,15.60
2023-01-26T00:55:22.998Z,15.65
2023-01-26T01:00:29.208Z,15.25
2023-01-26T01:05:35.271Z,15.24
2023-01-26T01:10:41.423Z,14.77
2023-01-26T01:15:47.564Z,16.04
2023-01-26T01:20:53.802Z,15.91
2023-01-26T01:25:59.919Z,15.64
2023-01-26T01:31:06.165Z,15.53
2023-01-26T01:36:12.167Z,15.40
2023-01-26T01:41:18.310Z,15.50
2023-01-26T01:46:24.547Z,15.22
2023-01-26T01:51:30.695Z,16.03
2023-01-26T01:56:36.840Z,15.59
2023-01-26T02:01:43.243Z,15.61
2023-01-26T02:06:49.269Z,15.19
2023-01-26T02:11:55.410Z,15.86
2023-01-26T02:17:01.520Z,15.70
2023-01-26T02:22:07.791Z,15.67
2023-01-26T02:27:13.856Z,15.01
2023-01-26T02:32:20.061Z,14.86
2023-01-26T02:37:26.184Z,15.01
2023-01-26T02:42:32.374Z,15.32
2023-01-26T02:47:38.451Z,13.69
2023-01-26T02:52:44.658Z,13.65
2023-01-26T02:57:50.769Z,12.91
2023-01-26T03:02:56.967Z,13.43
2023-01-26T03:08:03.024Z,12.57
2023-01-26T03:13:09.249Z,12.47
2023-01-26T03:18:15.371Z,12.71
2023-01-26T03:23:21.615Z,12.96
2023-01-26T03:28:28.071Z,12.51
2023-01-26T03:33:34.285Z,12.94
2023-01-26T03:38:40.359Z,12.58
2023-01-26T03:43:49.348Z,12.14
2023-01-26T03:48:55.432Z,12.27
2023-01-26T03:54:04.355Z,12.30
2023-01-26T03:59:10.767Z,11.45
2023-01-26T04:04:17.253Z,11.39
2023-01-26T04:09:23.361Z,10.15
2023-01-26T04:14:29.477Z,9.22
2023-01-26T04:19:35.448Z,8.65
2023-01-26T04:24:41.587Z,8.61
2023-01-26T04:29:48.013Z,8.24
2023-01-26T04:34:54.245Z,8.45
2023-01-26T04:40:00.426Z,8.29
2023-01-26T04:45:06.597Z,8.54
2023-01-26T04:50:13.159Z,8.60
2023-01-26T04:55:19.682Z,8.73
2023-01-26T05:00:25.862Z,8.66
2023-01-26T05:05:32.166Z,8.95
2023-01-26T05:10:38.281Z,8.35
2023-01-26T05:15:44.524Z,8.15
2023-01-26T05:20:50.637Z,8.27
2023-01-26T05:25:56.911Z,8.79
2023-01-26T05:31:03.061Z,7.99
2023-01-26T05:36:09.192Z,8.05
2023-01-26T05:41:15.274Z,8.40
2023-01-26T05:46:21.520Z,8.29
2023-01-26T05:51:28.038Z,7.94
2023-01-26T05:56:35.167Z,7.94
2023-01-26T06:01:43.601Z,8.02
2023-01-26T06:06:49.780Z,8.02
2023-01-26T06:11:55.855Z,8.22
2023-01-26T06:17:02.225Z,7.08
2023-01-26T06:22:09.078Z,7.49
2023-01-26T06:27:16.090Z,7.86
2023-01-26T06:32:22.297Z,7.41
2023-01-26T06:37:28.609Z,7.81
2023-01-26T06:42:34.717Z,7.04
2023-01-26T06:47:40.980Z,6.85
2023-01-26T06:52:47.359Z,6.85
2023-01-26T06:57:53.664Z,6.25
2023-01-26T07:03:03.045Z,6.38
2023-01-26T07:08:09.239Z,6.01
2023-01-26T07:13:15.313Z,5.44
2023-01-26T07:18:21.504Z,5.62
2023-01-26T07:23:27.621Z,5.52
2023-01-26T07:28:34.236Z,5.79
2023-01-26T07:33:40.288Z,5.27
2023-01-26T07:38:46.473Z,5.62
2023-01-26T07:43:52.582Z,5.58
2023-01-26T07:48:58.752Z,6.05
2023-01-26T07:54:04.841Z,6.41
2023-01-26T07:59:11.379Z,5.65
2023-01-26T08:04:17.441Z,5.80
2023-01-26T08:09:23.623Z,6.09
2023-01-26T08:14:45.118Z,5.90
2023-01-26T08:19:35.563Z,6.47
2023-01-26T08:24:41.624Z,7.01
2023-01-26T08:29:47.875Z,7.65
2023-01-26T08:34:53.997Z,7.56
2023-01-26T08:40:00.483Z,7.39
2023-01-26T08:45:06.567Z,8.01
2023-01-26T08:50:12.968Z,7.52
2023-01-26T08:55:18.839Z,8.25
2023-01-26T09:00:25.087Z,7.67
2023-01-26T09:05:31.132Z,7.74
2023-01-26T09:10:37.381Z,7.92
2023-01-26T09:15:43.542Z,8.51
2023-01-26T09:20:49.752Z,8.35
2023-01-26T09:25:55.841Z,8.46
2023-01-26T09:31:02.035Z,8.24
2023-01-26T09:36:08.078Z,8.52
2023-01-26T09:41:17.264Z,8.58
2023-01-26T09:46:23.420Z,8.98
2023-01-26T09:51:30.042Z,8.70
2023-01-26T09:56:36.122Z,8.88
2023-01-26T10:01:42.423Z,8.89
2023-01-26T10:06:48.566Z,9.00
2023-01-26T10:11:54.736Z,8.92
2023-01-26T10:17:00.940Z,8.72
2023-01-26T10:22:07.160Z,8.80
2023-01-26T10:27:13.239Z,9.43
2023-01-26T10:32:19.411Z,9.64
2023-01-26T10:37:25.643Z,10.17
2023-01-26T10:42:31.893Z,10.26
2023-01-26T10:47:37.958Z,11.48
2023-01-26T10:52:44.153Z,11.48
2023-01-26T10:57:50.352Z,10.18
2023-01-26T11:02:57.992Z,9.71
2023-01-26T11:08:06.742Z,10.59
2023-01-26T11:13:12.996Z,10.71
2023-01-26T11:18:19.094Z,10.60
2023-01-26T11:23:25.830Z,9.23
2023-01-26T11:28:31.914Z,7.87
2023-01-26T11:33:39.847Z,7.50
2023-01-26T11:38:44.083Z,6.68
2023-01-26T11:43:50.318Z,6.82
2023-01-26T11:48:59.427Z,5.70
2023-01-26T11:54:05.798Z,5.56
2023-01-26T11:59:11.867Z,5.51
2023-01-26T12:04:18.096Z,5.13
2023-01-26T12:09:24.193Z,5.36
2023-01-26T12:14:31.145Z,5.03
2023-01-26T12:19:37.221Z,4.40
2023-01-26T12:25:04.953Z,4.38
2023-01-26T12:29:49.914Z,4.26
2023-01-26T12:34:56.122Z,4.35
2023-01-26T12:40:02.317Z,3.68
2023-01-26T12:45:08.553Z,3.76
2023-01-26T12:50:15.120Z,3.21
2023-01-26T12:55:20.460Z,3.16
2023-01-26T13:00:26.587Z,3.41
2023-01-26T13:05:32.881Z,3.26
2023-01-26T13:10:38.954Z,3.00
2023-01-26T13:15:45.212Z,3.90
2023-01-26T13:20:51.300Z,3.59
2023-01-26T13:26:09.454Z,3.12
2023-01-26T13:31:03.433Z,9.00
2023-01-26T13:36:09.515Z,4.56
2023-01-26T13:41:15.586Z,2.41
2023-01-26T13:46:22.163Z,2.60
2023-01-26T13:51:28.222Z,2.30
2023-01-26T13:56:34.494Z,2.34
2023-01-26T14:01:44.115Z,2.16
2023-01-26T14:06:50.793Z,2.09
2023-01-26T14:11:56.926Z,2.08
2023-01-26T14:17:04.712Z,2.00
2023-01-26T14:22:08.891Z,2.12
2023-01-26T14:27:15.116Z,2.10
2023-01-26T14:32:21.835Z,2.10
2023-01-26T14:37:29.503Z,2.51
2023-01-26T14:42:35.922Z,2.21
2023-01-26T14:47:42.176Z,2.47
2023-01-26T14:52:48.298Z,2.33
2023-01-26T14:57:54.907Z,2.69
2023-01-26T15:03:00.979Z,2.15
2023-01-26T15:08:07.234Z,1.93
2023-01-26T15:13:13.335Z,1.97
2023-01-26T15:18:22.853Z,2.04
2023-01-26T15:23:30.385Z,2.53
2023-01-26T15:28:35.054Z,2.27
2023-01-26T15:33:41.193Z,2.58
2023-01-26T15:38:47.603Z,2.03
2023-01-26T15:43:54.585Z,2.19
2023-01-26T15:49:01.477Z,2.21
2023-01-26T15:54:07.553Z,2.00
2023-01-26T15:59:13.926Z,1.86
2023-01-26T16:04:20.017Z,2.00
2023-01-26T16:09:26.358Z,1.95
2023-01-26T16:14:32.524Z,1.87
2023-01-26T16:19:38.701Z,1.92
2023-01-26T16:24:44.765Z,3.09
2023-01-26T16:29:51.142Z,1.77
2023-01-26T16:34:57.274Z,2.39
2023-01-26T16:40:03.782Z,2.28
2023-01-26T16:45:10.271Z,2.28
2023-01-26T16:50:17.017Z,2.22
2023-01-26T16:55:23.116Z,2.26
2023-01-26T17:00:29.355Z,2.22
2023-01-26T17:05:36.409Z,2.18
2023-01-26T17:10:59.578Z,2.44
2023-01-26T17:15:48.206Z,2.28
2023-01-26T17:20:54.401Z,2.64
2023-01-26T17:26:00.477Z,2.72
2023-01-26T17:31:06.622Z,2.71
2023-01-26T17:36:13.151Z,4.09
2023-01-26T17:41:20.865Z,8.27
2023-01-26T17:46:29.534Z,3.09
2023-01-26T17:51:36.341Z,3.24
2023-01-26T17:56:42.831Z,3.40
2023-01-26T18:01:50.505Z,3.35
2023-01-26T18:06:57.053Z,4.04
2023-01-26T18:12:03.699Z,3.15
2023-01-26T18:17:10.736Z,3.30
2023-01-26T18:22:18.568Z,3.20
2023-01-26T18:27:25.088Z,3.66
2023-01-26T18:32:31.565Z,3.67
2023-01-26T18:37:38.281Z,4.91
2023-01-26T18:42:45.013Z,5.17
2023-01-26T18:47:51.536Z,5.24
2023-01-26T18:52:58.461Z,4.75
2023-01-26T18:58:05.065Z,4.67
2023-01-26T19:03:11.937Z,5.02
2023-01-26T19:08:18.272Z,6.06
2023-01-26T19:13:25.789Z,6.16
2023-01-26T19:18:32.423Z,6.27
2023-01-26T19:23:39.090Z,6.64
2023-01-26T19:28:45.734Z,6.61
2023-01-26T19:33:52.298Z,6.94
2023-01-26T19:38:59.965Z,6.58
2023-01-26T19:44:06.678Z,6.44
2023-01-26T19:49:13.513Z,6.82
2023-01-26T19:54:20.521Z,6.39
2023-01-26T19:59:26.925Z,6.25
2023-01-26T20:04:34.579Z,6.12
2023-01-26T20:09:41.106Z,5.66
2023-01-26T20:14:47.582Z,5.53
2023-01-26T20:19:53.712Z,5.29
2023-01-26T20:24:59.925Z,6.07
2023-01-26T20:30:06.103Z,5.66
2023-01-26T20:35:12.454Z,5.64
2023-01-26T20:40:18.615Z,5.88
2023-01-26T20:45:24.822Z,5.78
2023-01-26T20:50:30.979Z,5.97
2023-01-26T20:55:37.297Z,5.73
2023-01-26T21:00:43.412Z,5.67
2023-01-26T21:05:49.650Z,5.84
2023-01-26T21:10:55.822Z,6.15
2023-01-26T21:16:02.096Z,5.88
2023-01-26T21:21:08.198Z,6.32
2023-01-26T21:26:14.580Z,7.10
2023-01-26T21:31:20.969Z,6.67
2023-01-26T21:36:27.174Z,6.54
2023-01-26T21:41:33.264Z,6.60
2023-01-26T21:46:39.598Z,6.88
2023-01-26T21:51:45.809Z,7.05
2023-01-26T21:56:52.235Z,6.77
2023-01-26T22:01:58.345Z,7.28
2023-01-26T22:07:04.553Z,6.59
2023-01-26T22:12:10.700Z,5.89
2023-01-26T22:17:17.015Z,5.11
2023-01-26T22:22:24.384Z,4.78
2023-01-26T22:27:30.614Z,4.67
2023-01-26T22:32:36.787Z,4.85
2023-01-26T22:37:43.005Z,4.87
2023-01-26T22:42:49.155Z,6.66
2023-01-26T22:47:55.333Z,4.97
2023-01-26T22:53:01.540Z,4.87
2023-01-26T22:58:07.742Z,4.65
2023-01-26T23:03:14.150Z,4.95
2023-01-26T23:08:20.767Z,4.76
2023-01-26T23:13:26.863Z,4.82
2023-01-26T23:18:33.173Z,4.61
2023-01-26T23:23:39.331Z,4.63
2023-01-26T23:28:45.560Z,4.10
2023-01-26T23:33:51.695Z,4.22
2023-01-26T23:38:58.000Z,4.02
2023-01-26T23:44:04.160Z,3.80
2023-01-26T23:49:10.830Z,3.58
2023-01-26T23:54:16.907Z,3.47
2023-01-26T23:59:23.258Z,3.55
